Terminal Aerodrome Forecast
Issued by NWS

Home | Current Version | Previous Version | Graphics & Text | Print | Product List | Glossary On
Versions: 1 2 3 4 5 6 7 8 9 10 11 12 13 14 15 16 17 18 19 20 21
341
FTUS43 KMPX 162339
TAFRWF
TAF
KRWF 162339Z 1700/1724 30007KT P6SM OVC035
      TEMPO 1700/1703 OVC025
     FM170900 29007KT P6SM SCT040
     FM171500 30010KT P6SM FEW050=

USA.gov is the U.S. government's official web portal to all federal, state and local government web resources and services.